Time;durP1;ratioP1;P1;durP2;ratioP2;P2;SDS_P1;SDS_P2;PMS_P1;PMS_P2;Temp;Humidity;BMP_temperature;BMP_pressure;BME280_temperature;BME280_humidity;BME280_pressure;Samples;Min_cycle;Max_cycle;Signal;HPM_P1;HPM_P2
2021/01/20 00:01:37;;;;;;;;;;;;;;;11.30;59.95;100184.25;4924463;29;19926;-86
2021/01/20 00:04:02;;;;;;;;;;;;;;;11.23;59.96;100166.66;4904154;29;19979;-84
2021/01/20 00:06:27;;;;;;;;;;;;;;;11.66;58.96;100160.41;4904640;29;19966;-87
2021/01/20 00:08:52;;;;;;;;;;;;;;;11.28;59.91;100164.53;4904263;29;19923;-86
2021/01/20 00:11:18;;;;;;;;;;;;;;;11.49;59.21;100147.91;4903601;29;19920;-87
2021/01/20 00:13:43;;;;;;;;;;;;;;;11.21;60.04;100149.63;4903438;29;19927;-86
2021/01/20 00:16:08;;;;;;;;;;;;;;;10.98;60.54;100153.75;4903268;29;19919;-86
2021/01/20 00:18:34;;;;;;;;;;;;;;;10.91;60.82;100164.03;4903899;29;19919;-87
2021/01/20 00:20:59;;;;;;;;;;;;;;;11.17;59.86;100153.47;4903039;29;19959;-86
2021/01/20 00:23:24;;;;;;;;;;;;;;;11.44;58.99;100150.88;4903622;29;20003;-87
2021/01/20 00:25:50;;;;;;;;;;;;;;;11.05;60.06;100162.34;4903831;29;20274;-86
2021/01/20 00:28:15;;;;;;;;;;;;;;;10.91;60.53;100139.69;4904861;29;19920;-87
2021/01/20 00:30:48;;;;;;;;;;;;;;;11.09;59.77;100151.22;4903948;29;19920;-87
2021/01/20 00:33:24;;;;;;;;;;;;;;;10.84;60.79;100141.03;4903096;29;20393;-86
2021/01/20 00:35:49;;;;;;;;;;;;;;;11.15;59.74;100131.91;4903405;29;19927;-86
2021/01/20 00:38:15;;;;;;;;;;;;;;;10.88;60.45;100137.16;4903230;29;19919;-87
2021/01/20 00:40:40;;;;;;;;;;;;;;;10.86;60.54;100147.22;4902956;29;19916;-84
2021/01/20 00:43:05;;;;;;;;;;;;;;;10.50;61.51;100143.03;4902993;29;19919;-86
2021/01/20 00:45:31;;;;;;;;;;;;;;;10.73;60.89;100128.13;4904245;29;19924;-86
2021/01/20 00:47:56;;;;;;;;;;;;;;;11.05;59.67;100127.16;4903214;29;19951;-87
2021/01/20 00:50:21;;;;;;;;;;;;;;;10.94;60.16;100131.38;4903279;29;19930;-86
2021/01/20 00:52:46;;;;;;;;;;;;;;;11.14;60.06;100113.06;4903107;29;20320;-87
2021/01/20 00:55:14;;;;;;;;;;;;;;;11.57;57.92;100125.75;4903537;29;20018;-87
2021/01/20 00:57:39;;;;;;;;;;;;;;;11.31;59.55;100118.31;4903420;29;19919;-85
2021/01/20 01:00:05;;;;;;;;;;;;;;;10.81;60.23;100127.69;4903482;29;19927;-86
2021/01/20 01:02:31;;;;;;;;;;;;;;;10.81;60.39;100130.41;4903502;29;19919;-87
2021/01/20 01:04:56;;;;;;;;;;;;;;;11.07;60.02;100118.00;4922236;29;19947;-87
2021/01/20 01:07:21;;;;;;;;;;;;;;;11.29;59.33;100111.22;4922172;29;19987;-87
2021/01/20 01:09:46;;;;;;;;;;;;;;;10.80;60.34;100115.13;4922476;29;19919;-87
2021/01/20 01:12:12;;;;;;;;;;;;;;;10.74;60.60;100116.38;4922225;29;19923;-87
2021/01/20 01:14:37;;;;;;;;;;;;;;;11.09;59.45;100126.88;4921938;29;20433;-87
2021/01/20 01:17:02;;;;;;;;;;;;;;;11.15;59.77;100112.97;4921997;29;20009;-86
2021/01/20 01:19:27;;;;;;;;;;;;;;;10.88;60.46;100110.09;4921551;29;19919;-88
2021/01/20 01:21:53;;;;;;;;;;;;;;;10.81;60.95;100109.63;4921483;29;20280;-88
2021/01/20 01:24:18;;;;;;;;;;;;;;;10.90;60.41;100119.03;4921060;29;19919;-87
2021/01/20 01:26:43;;;;;;;;;;;;;;;10.65;61.33;100100.69;4921266;29;19926;-87
2021/01/20 01:29:08;;;;;;;;;;;;;;;11.19;59.57;100097.41;4921555;29;20436;-85
2021/01/20 01:31:34;;;;;;;;;;;;;;;11.05;60.11;100102.78;4920934;29;19919;-86
2021/01/20 01:33:59;;;;;;;;;;;;;;;11.57;59.21;100077.00;4921279;29;20014;-86
2021/01/20 01:36:24;;;;;;;;;;;;;;;11.26;60.16;100081.63;4921513;29;19919;-86
2021/01/20 01:38:49;;;;;;;;;;;;;;;11.21;60.26;100091.91;4921163;29;19983;-86
2021/01/20 01:41:15;;;;;;;;;;;;;;;11.15;60.39;100091.28;4921280;29;19919;-86
2021/01/20 01:43:40;;;;;;;;;;;;;;;11.76;58.90;100069.44;4921282;29;19942;-85
2021/01/20 01:46:05;;;;;;;;;;;;;;;11.15;60.32;100066.94;4920980;29;19919;-85
2021/01/20 01:48:30;;;;;;;;;;;;;;;11.07;60.32;100065.69;4922089;29;19982;-85
2021/01/20 01:50:56;;;;;;;;;;;;;;;10.72;62.33;100082.25;4921051;29;19919;-86
2021/01/20 01:53:21;;;;;;;;;;;;;;;10.80;61.39;100059.16;4920430;29;19930;-85
2021/01/20 01:55:47;;;;;;;;;;;;;;;11.11;61.08;100061.81;4920644;29;19915;-86
2021/01/20 01:58:13;;;;;;;;;;;;;;;10.95;61.41;100079.00;4920784;29;20013;-86
2021/01/20 02:00:40;;;;;;;;;;;;;;;11.20;60.76;100063.94;4921024;29;19915;-85
2021/01/20 02:03:05;;;;;;;;;;;;;;;11.29;60.47;100049.84;4920884;29;19979;-84
2021/01/20 02:05:30;;;;;;;;;;;;;;;11.57;60.13;100052.63;4921104;29;19949;-86
2021/01/20 02:07:56;;;;;;;;;;;;;;;10.91;61.89;100058.50;4921253;29;19922;-86
2021/01/20 02:10:22;;;;;;;;;;;;;;;11.43;60.92;100051.66;4920740;29;19926;-86
2021/01/20 02:13:05;;;;;;;;;;;;;;;11.32;61.03;100044.22;4921213;29;20380;-86
2021/01/20 02:15:42;;;;;;;;;;;;;;;11.25;60.80;100032.03;4924264;29;20026;-87
2021/01/20 02:18:10;;;;;;;;;;;;;;;11.14;61.44;100046.25;4924650;29;19947;-86
2021/01/20 02:20:54;;;;;;;;;;;;;;;10.98;62.18;100045.47;4924545;29;19927;-87
2021/01/20 02:23:20;;;;;;;;;;;;;;;11.38;60.96;100029.41;4924607;29;19919;-86
2021/01/20 02:26:01;;;;;;;;;;;;;;;11.33;60.88;100029.69;4924178;29;20378;-86
2021/01/20 02:28:38;;;;;;;;;;;;;;;11.07;61.94;100028.66;4924435;29;19990;-87
2021/01/20 02:31:04;;;;;;;;;;;;;;;11.10;61.47;100022.19;4924672;29;19990;-87
2021/01/20 02:33:31;;;;;;;;;;;;;;;11.88;59.89;100009.00;4924792;29;19951;-86
2021/01/20 02:35:58;;;;;;;;;;;;;;;11.06;61.93;100023.34;4924590;29;19951;-86
2021/01/20 02:38:24;;;;;;;;;;;;;;;11.18;61.96;100009.03;4924530;29;19926;-86
2021/01/20 02:40:49;;;;;;;;;;;;;;;11.36;61.21;100004.28;4923730;29;19919;-87
2021/01/20 02:43:20;;;;;;;;;;;;;;;11.18;61.66;100003.63;4924083;29;19967;-86
2021/01/20 02:45:45;;;;;;;;;;;;;;;11.12;62.21;99995.88;4924348;29;20009;-85
2021/01/20 02:48:11;;;;;;;;;;;;;;;10.93;62.45;100015.09;4923980;29;19964;-86
2021/01/20 02:50:36;;;;;;;;;;;;;;;11.74;60.38;99981.06;4923787;29;19974;-86
2021/01/20 02:53:05;;;;;;;;;;;;;;;11.31;61.32;99985.63;4923810;29;19951;-85
2021/01/20 02:55:31;;;;;;;;;;;;;;;11.15;62.42;100009.22;4923983;29;19919;-86
2021/01/20 02:58:00;;;;;;;;;;;;;;;11.66;61.19;99987.00;4923357;29;19926;-84
2021/01/20 03:00:27;;;;;;;;;;;;;;;11.37;61.77;99986.19;4923518;29;19919;-86
2021/01/20 03:02:54;;;;;;;;;;;;;;;11.14;62.30;99980.41;4923459;29;20377;-85
2021/01/20 03:05:20;;;;;;;;;;;;;;;11.58;61.27;99986.63;4923137;29;20012;-85
2021/01/20 03:07:45;;;;;;;;;;;;;;;11.73;60.58;99977.50;4923214;29;19974;-86
2021/01/20 03:10:12;;;;;;;;;;;;;;;11.19;62.30;99983.72;4923824;29;19954;-86
2021/01/20 03:12:37;;;;;;;;;;;;;;;11.03;62.31;99989.22;4924578;29;19925;-86
2021/01/20 03:15:05;;;;;;;;;;;;;;;11.57;61.01;99979.47;4923257;29;19958;-85
2021/01/20 03:17:31;;;;;;;;;;;;;;;11.88;60.00;99972.88;4922669;29;19919;-85
2021/01/20 03:19:57;;;;;;;;;;;;;;;11.46;61.77;99970.22;4922835;29;20002;-86
2021/01/20 03:22:22;;;;;;;;;;;;;;;11.80;60.65;99972.53;4924281;29;19932;-86
2021/01/20 03:24:47;;;;;;;;;;;;;;;11.68;60.67;99969.69;4922322;29;20464;-86
2021/01/20 03:27:12;;;;;;;;;;;;;;;11.67;61.23;99964.34;4922057;29;19915;-86
2021/01/20 03:29:38;;;;;;;;;;;;;;;11.22;62.17;99975.38;4922407;29;20018;-87
2021/01/20 03:32:03;;;;;;;;;;;;;;;11.50;61.57;99970.88;4923015;29;19919;-85
2021/01/20 03:34:28;;;;;;;;;;;;;;;11.74;60.54;99975.66;4922862;29;19919;-85
2021/01/20 03:36:54;;;;;;;;;;;;;;;11.05;63.21;99976.47;4922512;29;19963;-85
2021/01/20 03:39:19;;;;;;;;;;;;;;;11.57;61.95;99950.53;4922451;29;19919;-85
2021/01/20 03:41:44;;;;;;;;;;;;;;;11.22;63.26;99966.38;4922341;29;19923;-84
2021/01/20 03:44:09;;;;;;;;;;;;;;;11.26;63.29;99957.97;4922619;29;19927;-84
2021/01/20 03:46:35;;;;;;;;;;;;;;;11.68;62.01;99971.50;4924005;29;20270;-86
2021/01/20 03:49:00;;;;;;;;;;;;;;;11.20;64.20;99957.50;4922516;29;19919;-84
2021/01/20 03:51:28;;;;;;;;;;;;;;;11.45;63.52;99949.50;4921904;29;19919;-86
2021/01/20 03:53:53;;;;;;;;;;;;;;;11.74;62.30;99949.41;4922453;29;20303;-86
2021/01/20 03:56:19;;;;;;;;;;;;;;;11.64;62.81;99951.00;4923310;29;19919;-85
2021/01/20 03:58:44;;;;;;;;;;;;;;;11.41;62.39;99945.25;4922103;29;19935;-86
2021/01/20 04:01:09;;;;;;;;;;;;;;;11.40;63.64;99946.25;4922226;29;19925;-85
2021/01/20 04:03:34;;;;;;;;;;;;;;;11.40;63.39;99937.22;4921957;29;19923;-86
2021/01/20 04:05:59;;;;;;;;;;;;;;;11.52;61.93;99947.28;4922092;29;19919;-85
2021/01/20 04:08:25;;;;;;;;;;;;;;;11.32;62.15;99919.66;4922136;29;19979;-86
2021/01/20 04:10:50;;;;;;;;;;;;;;;11.99;60.51;99918.00;4922468;29;19919;-86
2021/01/20 04:13:15;;;;;;;;;;;;;;;11.70;60.72;99910.81;4922093;29;20379;-86
2021/01/20 04:15:40;;;;;;;;;;;;;;;11.80;60.39;99916.47;4923726;29;19930;-86
2021/01/20 04:18:06;;;;;;;;;;;;;;;11.66;60.80;99903.88;4922409;29;19923;-85
2021/01/20 04:20:31;;;;;;;;;;;;;;;11.87;59.44;99889.84;4922290;29;19983;-84
2021/01/20 04:22:57;;;;;;;;;;;;;;;11.99;58.96;99894.44;4922059;29;20014;-86
2021/01/20 04:25:22;;;;;;;;;;;;;;;11.54;60.38;99904.69;4922047;29;20285;-86
2021/01/20 04:27:47;;;;;;;;;;;;;;;11.54;59.81;99902.00;4922642;29;19919;-86
2021/01/20 04:30:13;;;;;;;;;;;;;;;11.99;58.88;99880.03;4922130;29;19919;-86
2021/01/20 04:32:38;;;;;;;;;;;;;;;11.62;59.59;99877.94;4921951;29;19919;-86
2021/01/20 04:35:03;;;;;;;;;;;;;;;11.96;58.51;99878.41;4921667;29;19919;-85
2021/01/20 04:37:29;;;;;;;;;;;;;;;11.79;59.26;99884.94;4921293;29;19919;-86
2021/01/20 04:39:54;;;;;;;;;;;;;;;12.01;57.87;99884.38;4921791;29;19925;-86
2021/01/20 04:42:19;;;;;;;;;;;;;;;11.77;59.05;99899.56;4921698;29;19920;-86
2021/01/20 04:44:46;;;;;;;;;;;;;;;11.68;59.41;99893.81;4921666;29;19930;-86
2021/01/20 04:47:12;;;;;;;;;;;;;;;11.51;59.41;99888.66;4922041;29;20094;-86
2021/01/20 04:49:37;;;;;;;;;;;;;;;11.76;59.05;99884.28;4921113;29;19926;-85
2021/01/20 04:52:03;;;;;;;;;;;;;;;11.71;59.20;99865.63;4922216;29;20299;-86
2021/01/20 04:54:30;;;;;;;;;;;;;;;11.68;59.54;99874.84;4923022;29;19919;-86
2021/01/20 04:56:56;;;;;;;;;;;;;;;12.22;57.96;99865.72;4921277;29;20301;-86
2021/01/20 04:59:21;;;;;;;;;;;;;;;11.92;58.25;99862.44;4921555;29;19919;-86
2021/01/20 05:01:49;;;;;;;;;;;;;;;12.13;58.18;99868.22;4922511;29;19919;-86
2021/01/20 05:04:15;;;;;;;;;;;;;;;11.55;60.06;99849.56;4922426;29;20374;-86
2021/01/20 05:06:40;;;;;;;;;;;;;;;11.84;58.75;99854.81;4922524;29;20062;-86
2021/01/20 05:09:05;;;;;;;;;;;;;;;11.72;58.94;99850.25;4922507;29;19919;-86
2021/01/20 05:11:37;;;;;;;;;;;;;;;12.03;58.67;99844.47;4923120;29;19920;-86
2021/01/20 05:14:13;;;;;;;;;;;;;;;12.17;57.90;99862.50;4923229;29;19999;-85
2021/01/20 05:16:38;;;;;;;;;;;;;;;12.01;58.69;99850.97;4922907;29;19919;-86
2021/01/20 05:19:04;;;;;;;;;;;;;;;11.92;58.86;99847.03;4922164;29;19987;-85
2021/01/20 05:21:29;;;;;;;;;;;;;;;11.73;59.24;99839.31;4921585;29;19918;-85
2021/01/20 05:24:14;;;;;;;;;;;;;;;12.00;58.59;99832.97;4921311;29;19926;-85
2021/01/20 05:26:43;;;;;;;;;;;;;;;12.27;57.67;99838.28;4920996;29;19919;-85
2021/01/20 05:29:09;;;;;;;;;;;;;;;12.03;58.66;99839.06;4920792;29;19963;-85
2021/01/20 05:31:34;;;;;;;;;;;;;;;11.75;59.25;99842.78;4921362;29;20393;-85
2021/01/20 05:33:59;;;;;;;;;;;;;;;11.81;58.77;99845.06;4920820;29;19926;-85
2021/01/20 05:36:24;;;;;;;;;;;;;;;11.95;59.07;99838.72;4920443;29;19970;-84
2021/01/20 05:38:51;;;;;;;;;;;;;;;11.31;60.22;99847.53;4921505;29;19926;-86
2021/01/20 05:41:19;;;;;;;;;;;;;;;11.65;59.49;99828.13;4921475;29;19922;-85
2021/01/20 05:43:44;;;;;;;;;;;;;;;12.03;58.53;99827.31;4921244;29;19919;-85
2021/01/20 05:46:10;;;;;;;;;;;;;;;12.04;58.32;99839.91;4921501;29;19965;-85
2021/01/20 05:48:48;;;;;;;;;;;;;;;12.19;58.18;99832.56;4922422;29;19922;-83
2021/01/20 05:51:14;;;;;;;;;;;;;;;12.10;58.05;99834.06;4929814;29;19918;-84
2021/01/20 05:53:48;;;;;;;;;;;;;;;12.17;58.17;99823.66;4943669;29;20005;-86
2021/01/20 05:56:15;;;;;;;;;;;;;;;11.94;58.57;99820.72;4943099;29;19958;-86
2021/01/20 05:58:40;;;;;;;;;;;;;;;12.25;58.20;99812.28;4944014;29;20015;-86
2021/01/20 06:01:09;;;;;;;;;;;;;;;12.09;58.54;99828.75;4944042;29;20257;-86
2021/01/20 06:03:35;;;;;;;;;;;;;;;12.05;58.62;99826.25;4943790;29;20399;-85
2021/01/20 06:06:05;;;;;;;;;;;;;;;11.75;59.67;99831.94;4943829;29;19919;-85
2021/01/20 06:08:34;;;;;;;;;;;;;;;11.98;58.91;99814.09;4943662;29;19919;-85
2021/01/20 06:10:59;;;;;;;;;;;;;;;11.94;59.45;99827.97;4942941;29;19919;-85
2021/01/20 06:13:24;;;;;;;;;;;;;;;12.57;57.03;99826.22;4942860;29;19946;-86
2021/01/20 06:15:53;;;;;;;;;;;;;;;11.60;59.88;99824.88;4943316;29;19923;-86
2021/01/20 06:18:20;;;;;;;;;;;;;;;12.21;58.51;99817.03;4943204;29;19990;-87
2021/01/20 06:20:46;;;;;;;;;;;;;;;12.08;59.05;99819.75;4943475;29;20372;-87
2021/01/20 06:23:15;;;;;;;;;;;;;;;11.98;58.97;99815.94;4945068;29;19918;-86
2021/01/20 06:25:40;;;;;;;;;;;;;;;11.96;58.74;99799.78;4943288;29;19919;-86
2021/01/20 06:28:07;;;;;;;;;;;;;;;12.08;58.63;99805.31;4943025;29;20017;-86
2021/01/20 06:30:43;;;;;;;;;;;;;;;12.21;58.63;99798.03;4942974;29;19923;-84
2021/01/20 06:33:10;;;;;;;;;;;;;;;12.45;58.24;99805.41;4942896;29;19923;-83
2021/01/20 06:35:38;;;;;;;;;;;;;;;12.08;59.17;99803.50;4939803;29;19919;-86
2021/01/20 06:38:04;;;;;;;;;;;;;;;11.98;59.03;99800.53;4940009;29;19919;-86
2021/01/20 06:40:32;;;;;;;;;;;;;;;11.72;60.16;99804.19;4940444;29;20006;-88
2021/01/20 06:42:57;;;;;;;;;;;;;;;12.46;58.87;99801.72;4940780;29;20357;-90
2021/01/20 06:45:25;;;;;;;;;;;;;;;12.21;59.41;99811.59;4941036;29;19933;-86
2021/01/20 06:47:56;;;;;;;;;;;;;;;12.31;58.85;99799.13;4941684;29;19925;-85
2021/01/20 06:50:22;;;;;;;;;;;;;;;12.72;57.77;99786.25;4940640;29;19967;-86
2021/01/20 06:53:06;;;;;;;;;;;;;;;12.65;58.12;99793.09;4928421;29;19923;-85
2021/01/20 06:55:38;;;;;;;;;;;;;;;12.76;57.85;99782.34;4920550;29;20293;-89
2021/01/20 06:58:16;;;;;;;;;;;;;;;12.55;59.02;99784.78;4927749;29;19919;-84
2021/01/20 07:00:42;;;;;;;;;;;;;;;12.34;59.02;99779.94;4921169;29;20292;-84
2021/01/20 07:03:07;;;;;;;;;;;;;;;12.50;58.50;99784.22;4920323;29;19951;-88
2021/01/20 07:05:36;;;;;;;;;;;;;;;12.18;59.51;99780.19;4921928;29;20293;-87
2021/01/20 07:08:02;;;;;;;;;;;;;;;12.05;60.39;99782.88;4919826;29;20472;-86
2021/01/20 07:10:47;;;;;;;;;;;;;;;12.55;59.08;99773.94;4919930;29;19919;-87
2021/01/20 07:13:16;;;;;;;;;;;;;;;12.18;60.08;99782.00;4918436;29;19926;-85
2021/01/20 07:15:43;;;;;;;;;;;;;;;12.02;61.22;99780.38;4921301;29;19934;-83
2021/01/20 07:18:09;;;;;;;;;;;;;;;12.11;61.07;99768.03;4922039;29;19923;-84
2021/01/20 07:20:39;;;;;;;;;;;;;;;11.97;60.69;99778.97;4919520;29;19919;-88
2021/01/20 07:23:05;;;;;;;;;;;;;;;12.26;60.37;99767.88;4918788;29;19922;-83
2021/01/20 07:25:30;;;;;;;;;;;;;;;12.08;60.51;99770.06;4919264;29;20369;-83
2021/01/20 07:27:56;;;;;;;;;;;;;;;11.86;61.72;99777.00;4918356;29;19974;-82
2021/01/20 07:30:21;;;;;;;;;;;;;;;12.39;59.79;99775.06;4919425;29;19967;-84
2021/01/20 07:32:46;;;;;;;;;;;;;;;12.32;60.59;99770.16;4919560;29;19951;-84
2021/01/20 07:35:19;;;;;;;;;;;;;;;12.62;59.26;99771.63;4918463;29;20429;-80
2021/01/20 07:37:44;;;;;;;;;;;;;;;12.40;60.24;99771.34;4917446;29;19919;-80
2021/01/20 07:40:10;;;;;;;;;;;;;;;12.46;59.61;99777.31;4917944;29;19924;-81
2021/01/20 07:42:39;;;;;;;;;;;;;;;12.96;58.68;99771.84;4922921;29;19925;-84
2021/01/20 07:45:04;;;;;;;;;;;;;;;12.64;59.11;99772.41;4937002;29;19931;-82
2021/01/20 07:47:43;;;;;;;;;;;;;;;12.55;58.93;99768.50;4935193;29;20300;-82
2021/01/20 07:50:08;;;;;;;;;;;;;;;12.96;58.31;99777.28;4936113;29;20378;-82
2021/01/20 07:52:36;;;;;;;;;;;;;;;12.52;59.45;99768.72;4936347;29;19965;-83
2021/01/20 07:55:02;;;;;;;;;;;;;;;12.28;60.07;99777.66;4936640;29;19930;-84
2021/01/20 07:57:28;;;;;;;;;;;;;;;12.11;60.65;99770.75;4938254;29;19919;-84
2021/01/20 08:00:02;;;;;;;;;;;;;;;12.40;60.12;99765.91;4938074;29;19919;-86
2021/01/20 08:02:28;;;;;;;;;;;;;;;12.56;58.71;99759.38;4937200;29;20058;-83
2021/01/20 08:04:59;;;;;;;;;;;;;;;12.62;58.73;99769.78;4938568;29;19958;-85
2021/01/20 08:07:25;;;;;;;;;;;;;;;12.04;60.45;99780.28;4934054;29;20018;-81
2021/01/20 08:09:50;;;;;;;;;;;;;;;12.58;58.98;99773.69;4917711;29;20022;-86
2021/01/20 08:12:17;;;;;;;;;;;;;;;12.26;59.71;99785.06;4930167;29;20309;-85
2021/01/20 08:14:43;;;;;;;;;;;;;;;12.07;59.73;99788.19;4937979;29;19927;-86
2021/01/20 08:17:09;;;;;;;;;;;;;;;12.32;59.38;99765.63;4938134;29;20395;-88
2021/01/20 08:19:35;;;;;;;;;;;;;;;12.47;58.40;99770.88;4937773;29;19919;-88
2021/01/20 08:22:12;;;;;;;;;;;;;;;12.32;59.00;99770.16;4937936;29;19922;-83
2021/01/20 08:24:43;;;;;;;;;;;;;;;12.52;58.63;99757.88;4937384;29;19943;-89
2021/01/20 08:27:28;;;;;;;;;;;;;;;12.74;58.16;99776.13;4937912;29;19922;-89
2021/01/20 08:29:54;;;;;;;;;;;;;;;12.15;59.42;99763.25;4937612;29;19919;-85
2021/01/20 08:32:19;;;;;;;;;;;;;;;12.55;58.10;99766.66;4936297;29;19918;-83
2021/01/20 08:34:46;;;;;;;;;;;;;;;12.68;57.87;99763.03;4937503;29;19919;-87
2021/01/20 08:37:12;;;;;;;;;;;;;;;12.89;56.93;99764.16;4938438;29;20292;-87
2021/01/20 08:39:39;;;;;;;;;;;;;;;12.40;58.01;99778.63;4937667;29;20340;-85
2021/01/20 08:42:26;;;;;;;;;;;;;;;12.88;56.78;99765.13;4937333;29;20013;-87
2021/01/20 08:45:11;;;;;;;;;;;;;;;12.67;57.29;99767.59;4937359;29;19926;-87
2021/01/20 08:47:44;;;;;;;;;;;;;;;12.11;58.93;99765.31;4936776;29;19919;-86
2021/01/20 08:50:11;;;;;;;;;;;;;;;12.16;58.07;99767.69;4936981;29;19926;-86
2021/01/20 08:52:42;;;;;;;;;;;;;;;12.35;57.85;99767.22;4936437;29;19919;-86
2021/01/20 08:55:08;;;;;;;;;;;;;;;12.05;58.54;99769.31;4937612;29;19919;-88
2021/01/20 08:57:34;;;;;;;;;;;;;;;12.29;57.95;99773.09;4938179;29;19919;-87
2021/01/20 08:59:59;;;;;;;;;;;;;;;12.31;57.61;99771.16;4937245;29;19919;-87
2021/01/20 09:02:26;;;;;;;;;;;;;;;12.60;57.41;99763.59;4937487;29;20345;-85
2021/01/20 09:04:51;;;;;;;;;;;;;;;12.70;56.60;99758.38;4938581;29;19930;-87
2021/01/20 09:07:17;;;;;;;;;;;;;;;12.20;57.82;99763.78;4939691;29;19919;-89
2021/01/20 09:09:43;;;;;;;;;;;;;;;12.12;58.22;99760.75;4936927;29;19939;-91
2021/01/20 09:12:21;;;;;;;;;;;;;;;11.96;58.39;99777.25;4939240;29;19919;-89
2021/01/20 09:14:50;;;;;;;;;;;;;;;12.21;57.75;99760.09;4939684;29;19933;-90
2021/01/20 09:22:19;;;;;;;;;;;;;;;12.11;57.64;99756.28;4937927;29;19934;-87
2021/01/20 09:28:02;;;;;;;;;;;;;;;;;;;;;
2021/01/20 09:30:28;;;;;;;;;;;;;;;12.02;57.45;99783.09;4942526;29;19919;-86
2021/01/20 09:32:54;;;;;;;;;;;;;;;12.20;57.11;99769.22;4925645;29;20407;-85
2021/01/20 09:35:20;;;;;;;;;;;;;;;12.18;56.56;99761.19;4926593;29;19945;-84
2021/01/20 09:37:46;;;;;;;;;;;;;;;12.84;54.42;99751.91;4926548;29;19919;-84
2021/01/20 09:40:14;;;;;;;;;;;;;;;12.86;54.55;99758.06;4941377;29;20348;-83
2021/01/20 09:42:39;;;;;;;;;;;;;;;12.25;55.58;99761.59;4941779;29;19923;-84
2021/01/20 09:45:06;;;;;;;;;;;;;;;12.28;56.09;99750.53;4924600;29;20035;-84
2021/01/20 09:47:31;;;;;;;;;;;;;;;12.31;54.77;99761.16;4924718;29;19919;-83
2021/01/20 09:49:56;;;;;;;;;;;;;;;12.49;54.65;99758.97;4924831;29;19981;-82
2021/01/20 09:52:25;;;;;;;;;;;;;;;12.19;54.67;99768.34;4924234;29;20420;-83
2021/01/20 09:54:51;;;;;;;;;;;;;;;12.38;54.44;99753.47;4924789;29;20006;-86
2021/01/20 09:57:17;;;;;;;;;;;;;;;12.57;53.57;99751.09;4924465;29;20293;-85
2021/01/20 09:59:42;;;;;;;;;;;;;;;12.74;53.25;99759.84;4924805;29;19929;-85
2021/01/20 10:02:07;;;;;;;;;;;;;;;12.87;52.32;99765.25;4924790;29;20416;-84
2021/01/20 10:04:32;;;;;;;;;;;;;;;12.74;53.14;99741.75;4924182;29;19923;-85
2021/01/20 10:06:58;;;;;;;;;;;;;;;12.64;53.18;99735.25;4941503;29;19923;-84
2021/01/20 10:09:23;;;;;;;;;;;;;;;12.64;52.95;99727.13;4923610;29;19926;-85
2021/01/20 10:11:49;;;;;;;;;;;;;;;12.62;52.83;99730.91;4924016;29;19919;-85
2021/01/20 10:14:15;;;;;;;;;;;;;;;12.62;52.73;99739.94;4924306;29;19919;-84
2021/01/20 10:16:40;;;;;;;;;;;;;;;12.38;52.97;99729.91;4923987;29;19923;-84
2021/01/20 10:19:06;;;;;;;;;;;;;;;12.96;51.60;99728.41;4923882;29;19926;-86
2021/01/20 10:21:31;;;;;;;;;;;;;;;12.65;52.10;99738.84;4920237;29;19927;-84
2021/01/20 10:23:56;;;;;;;;;;;;;;;13.07;51.29;99714.88;4919710;29;20010;-83
2021/01/20 10:26:25;;;;;;;;;;;;;;;12.73;52.22;99721.00;4920302;29;19923;-84
2021/01/20 10:28:50;;;;;;;;;;;;;;;13.07;51.94;99704.00;4923047;29;19978;-86
2021/01/20 10:31:15;;;;;;;;;;;;;;;12.94;52.03;99718.53;4920750;29;19923;-85
2021/01/20 10:33:41;;;;;;;;;;;;;;;12.97;52.21;99693.00;4920923;29;19923;-84
2021/01/20 10:36:06;;;;;;;;;;;;;;;13.33;51.23;99701.13;4920237;29;20369;-87
2021/01/20 10:38:32;;;;;;;;;;;;;;;12.99;53.04;99691.03;4921279;29;19923;-87
2021/01/20 10:40:58;;;;;;;;;;;;;;;13.36;51.84;99681.91;4920864;29;20373;-83
2021/01/20 10:43:23;;;;;;;;;;;;;;;13.49;52.04;99684.56;4919804;29;19927;-83
2021/01/20 10:45:48;;;;;;;;;;;;;;;13.12;52.28;99682.81;4921636;29;20341;-84
2021/01/20 10:48:13;;;;;;;;;;;;;;;13.04;52.99;99677.94;4920682;29;19923;-86
2021/01/20 10:50:39;;;;;;;;;;;;;;;13.16;52.34;99680.72;4921049;29;19978;-85
2021/01/20 10:53:04;;;;;;;;;;;;;;;12.32;53.89;99673.41;4920217;29;19920;-85
2021/01/20 10:55:29;;;;;;;;;;;;;;;12.60;54.06;99668.63;4921356;29;20005;-85
2021/01/20 10:57:54;;;;;;;;;;;;;;;12.74;53.07;99667.59;4920126;29;20369;-85
2021/01/20 11:00:20;;;;;;;;;;;;;;;12.88;52.84;99663.84;4920218;29;19915;-86
2021/01/20 11:02:45;;;;;;;;;;;;;;;12.61;53.30;99659.53;4919746;29;19926;-84
2021/01/20 11:05:12;;;;;;;;;;;;;;;13.11;52.64;99662.06;4920642;29;19927;-85
2021/01/20 11:07:40;;;;;;;;;;;;;;;12.75;52.25;99664.75;4921327;29;19915;-87
2021/01/20 11:10:06;;;;;;;;;;;;;;;13.50;52.16;99650.94;4921062;29;19989;-86
2021/01/20 11:12:33;;;;;;;;;;;;;;;13.40;51.67;99662.53;4919597;29;20452;-84
2021/01/20 11:14:58;;;;;;;;;;;;;;;13.09;51.41;99666.75;4919550;29;20011;-84
2021/01/20 11:17:23;;;;;;;;;;;;;;;12.52;52.55;99663.78;4920189;29;19967;-83
2021/01/20 11:19:49;;;;;;;;;;;;;;;13.16;51.36;99656.28;4919094;29;19927;-84
2021/01/20 11:22:14;;;;;;;;;;;;;;;12.84;50.95;99665.91;4918803;29;19923;-84
2021/01/20 11:24:39;;;;;;;;;;;;;;;14.04;49.14;99650.25;4920768;29;19919;-83
2021/01/20 11:27:05;;;;;;;;;;;;;;;12.59;51.48;99656.03;4918993;29;20335;-83
2021/01/20 11:29:43;;;;;;;;;;;;;;;13.04;51.47;99645.38;4919596;29;19919;-83
2021/01/20 11:32:09;;;;;;;;;;;;;;;13.28;50.90;99636.31;4918890;29;19995;-82
2021/01/20 11:34:43;;;;;;;;;;;;;;;12.81;51.59;99632.72;4913966;29;19926;-91
2021/01/20 11:37:08;;;;;;;;;;;;;;;13.14;50.43;99644.69;4901862;29;19925;-85
2021/01/20 11:39:37;;;;;;;;;;;;;;;13.75;49.79;99617.25;4900638;29;19998;-86
2021/01/20 11:42:05;;;;;;;;;;;;;;;12.75;51.34;99626.75;4901534;29;19923;-88
2021/01/20 11:44:31;;;;;;;;;;;;;;;13.46;49.66;99623.16;4902417;29;19998;-88
2021/01/20 11:46:56;;;;;;;;;;;;;;;12.74;51.24;99627.75;4900289;29;19970;-86
2021/01/20 11:49:27;;;;;;;;;;;;;;;13.35;49.46;99621.31;4900791;29;20369;-89
2021/01/20 11:54:50;;;;;;;;;;;;;;;13.43;48.84;99610.69;4893740;29;19919;-89
2021/01/20 11:57:18;;;;;;;;;;;;;;;12.74;50.13;99616.03;4902176;29;20019;-88
2021/01/20 11:59:43;;;;;;;;;;;;;;;12.76;50.03;99614.94;4902964;29;19963;-90
2021/01/20 12:05:41;;;;;;;;;;;;;;;13.04;49.63;99609.22;4903880;29;19920;-88
2021/01/20 12:11:14;;;;;;;;;;;;;;;13.25;49.57;99598.53;4893260;29;19919;-90
2021/01/20 12:13:39;;;;;;;;;;;;;;;13.20;49.48;99598.03;4925467;29;19929;-89
2021/01/20 12:16:05;;;;;;;;;;;;;;;12.54;51.92;99601.28;4939970;29;19919;-85
2021/01/20 12:18:30;;;;;;;;;;;;;;;13.09;50.66;99566.31;4923781;29;19919;-87
2021/01/20 12:20:56;;;;;;;;;;;;;;;13.02;51.99;99571.34;4923074;29;19919;-89
2021/01/20 12:23:21;;;;;;;;;;;;;;;12.74;52.75;99551.78;4923556;29;19919;-87
2021/01/20 12:25:46;;;;;;;;;;;;;;;13.06;51.34;99551.09;4921086;29;19926;-85
2021/01/20 12:28:11;;;;;;;;;;;;;;;13.11;50.71;99524.44;4921777;29;20440;-86
2021/01/20 12:30:37;;;;;;;;;;;;;;;12.98;49.82;99548.13;4939618;29;19925;-85
2021/01/20 12:33:02;;;;;;;;;;;;;;;13.53;48.94;99533.88;4922415;29;20021;-84
2021/01/20 12:35:27;;;;;;;;;;;;;;;12.82;50.22;99539.44;4921091;29;19953;-84
2021/01/20 12:37:53;;;;;;;;;;;;;;;13.12;49.48;99538.91;4920924;29;20014;-87
2021/01/20 12:40:18;;;;;;;;;;;;;;;13.69;48.74;99537.06;4922170;29;19919;-82
2021/01/20 12:42:43;;;;;;;;;;;;;;;14.02;47.54;99524.41;4920528;29;19919;-83
2021/01/20 12:45:09;;;;;;;;;;;;;;;13.27;48.72;99520.50;4920288;29;19919;-84
2021/01/20 12:47:34;;;;;;;;;;;;;;;13.78;47.93;99517.31;4920569;29;19914;-85
2021/01/20 12:50:00;;;;;;;;;;;;;;;14.09;47.03;99505.72;4925281;29;19918;-84
2021/01/20 12:52:25;;;;;;;;;;;;;;;13.77;47.89;99501.97;4939346;29;19919;-84
2021/01/20 12:54:51;;;;;;;;;;;;;;;14.26;47.26;99496.16;4939556;29;19915;-85
2021/01/20 12:57:17;;;;;;;;;;;;;;;13.85;48.42;99476.03;4938828;28;19919;-83
2021/01/20 12:59:43;;;;;;;;;;;;;;;14.27;47.49;99470.69;4937443;29;19922;-84
2021/01/20 13:02:08;;;;;;;;;;;;;;;13.64;48.07;99482.22;4937873;29;19919;-83